sensor_id;sensor_type;location;lat;lon;timestamp;P1;durP1;ratioP1;P2;durP2;ratioP2
42346;SDS011;75728;51.856;6.314;2024-02-23T00:02:15;1.42;;;0.40;;
42346;SDS011;75728;51.856;6.314;2024-02-23T00:04:40;0.80;;;0.20;;
42346;SDS011;75728;51.856;6.314;2024-02-23T00:07:06;3.83;;;0.43;;
42346;SDS011;75728;51.856;6.314;2024-02-23T00:09:33;0.68;;;0.20;;
42346;SDS011;75728;51.856;6.314;2024-02-23T00:11:58;0.13;;;0.10;;
42346;SDS011;75728;51.856;6.314;2024-02-23T00:14:24;0.65;;;0.20;;
42346;SDS011;75728;51.856;6.314;2024-02-23T00:16:50;0.40;;;0.10;;
42346;SDS011;75728;51.856;6.314;2024-02-23T00:19:15;0.73;;;0.20;;
42346;SDS011;75728;51.856;6.314;2024-02-23T00:21:43;0.20;;;0.10;;
42346;SDS011;75728;51.856;6.314;2024-02-23T00:24:12;0.13;;;0.10;;
42346;SDS011;75728;51.856;6.314;2024-02-23T00:26:38;0.75;;;0.20;;
42346;SDS011;75728;51.856;6.314;2024-02-23T00:29:04;1.10;;;0.30;;
42346;SDS011;75728;51.856;6.314;2024-02-23T00:31:29;1.13;;;0.22;;
42346;SDS011;75728;51.856;6.314;2024-02-23T00:33:55;0.32;;;0.10;;
42346;SDS011;75728;51.856;6.314;2024-02-23T00:36:21;0.63;;;0.20;;
42346;SDS011;75728;51.856;6.314;2024-02-23T00:38:46;0.10;;;0.10;;
42346;SDS011;75728;51.856;6.314;2024-02-23T00:41:12;0.28;;;0.10;;
42346;SDS011;75728;51.856;6.314;2024-02-23T00:43:38;0.52;;;0.15;;
42346;SDS011;75728;51.856;6.314;2024-02-23T00:46:10;0.45;;;0.20;;
42346;SDS011;75728;51.856;6.314;2024-02-23T00:48:35;0.40;;;0.20;;
42346;SDS011;75728;51.856;6.314;2024-02-23T00:51:01;0.20;;;0.20;;
42346;SDS011;75728;51.856;6.314;2024-02-23T00:53:28;0.55;;;0.20;;
42346;SDS011;75728;51.856;6.314;2024-02-23T00:55:55;0.32;;;0.20;;
42346;SDS011;75728;51.856;6.314;2024-02-23T00:58:20;0.38;;;0.20;;
42346;SDS011;75728;51.856;6.314;2024-02-23T01:00:46;0.70;;;0.22;;
42346;SDS011;75728;51.856;6.314;2024-02-23T01:03:12;0.35;;;0.10;;
42346;SDS011;75728;51.856;6.314;2024-02-23T01:05:37;0.10;;;0.10;;
42346;SDS011;75728;51.856;6.314;2024-02-23T01:08:04;0.63;;;0.30;;
42346;SDS011;75728;51.856;6.314;2024-02-23T01:10:30;0.70;;;0.20;;
42346;SDS011;75728;51.856;6.314;2024-02-23T01:12:56;0.50;;;0.20;;
42346;SDS011;75728;51.856;6.314;2024-02-23T01:15:22;0.45;;;0.10;;
42346;SDS011;75728;51.856;6.314;2024-02-23T01:17:48;0.88;;;0.20;;
42346;SDS011;75728;51.856;6.314;2024-02-23T01:20:13;0.52;;;0.20;;
42346;SDS011;75728;51.856;6.314;2024-02-23T01:22:39;1.40;;;0.30;;
42346;SDS011;75728;51.856;6.314;2024-02-23T01:25:05;1.05;;;0.10;;
42346;SDS011;75728;51.856;6.314;2024-02-23T01:27:31;0.68;;;0.20;;
42346;SDS011;75728;51.856;6.314;2024-02-23T01:29:56;0.30;;;0.17;;
42346;SDS011;75728;51.856;6.314;2024-02-23T01:32:22;0.50;;;0.20;;
42346;SDS011;75728;51.856;6.314;2024-02-23T01:34:48;0.32;;;0.10;;
42346;SDS011;75728;51.856;6.314;2024-02-23T01:37:13;0.65;;;0.20;;
42346;SDS011;75728;51.856;6.314;2024-02-23T01:39:39;0.20;;;0.10;;
42346;SDS011;75728;51.856;6.314;2024-02-23T01:42:05;0.75;;;0.20;;
42346;SDS011;75728;51.856;6.314;2024-02-23T01:44:30;0.65;;;0.20;;
42346;SDS011;75728;51.856;6.314;2024-02-23T01:46:56;7.43;;;0.43;;
42346;SDS011;75728;51.856;6.314;2024-02-23T01:49:22;0.30;;;0.10;;
42346;SDS011;75728;51.856;6.314;2024-02-23T01:51:54;0.40;;;0.10;;
42346;SDS011;75728;51.856;6.314;2024-02-23T01:54:21;0.68;;;0.30;;
42346;SDS011;75728;51.856;6.314;2024-02-23T01:56:47;0.95;;;0.10;;
42346;SDS011;75728;51.856;6.314;2024-02-23T01:59:12;0.60;;;0.40;;
42346;SDS011;75728;51.856;6.314;2024-02-23T02:01:38;0.30;;;0.10;;
42346;SDS011;75728;51.856;6.314;2024-02-23T02:04:04;0.63;;;0.30;;
42346;SDS011;75728;51.856;6.314;2024-02-23T02:06:30;0.32;;;0.20;;
42346;SDS011;75728;51.856;6.314;2024-02-23T02:08:55;0.70;;;0.35;;
42346;SDS011;75728;51.856;6.314;2024-02-23T02:11:21;0.50;;;0.10;;
42346;SDS011;75728;51.856;6.314;2024-02-23T02:13:47;0.95;;;0.20;;
42346;SDS011;75728;51.856;6.314;2024-02-23T02:16:12;0.20;;;0.10;;
42346;SDS011;75728;51.856;6.314;2024-02-23T02:18:38;0.50;;;0.20;;
42346;SDS011;75728;51.856;6.314;2024-02-23T02:21:04;1.05;;;0.30;;
42346;SDS011;75728;51.856;6.314;2024-02-23T02:23:29;0.88;;;0.32;;
42346;SDS011;75728;51.856;6.314;2024-02-23T02:25:55;0.40;;;0.20;;
42346;SDS011;75728;51.856;6.314;2024-02-23T02:28:22;0.50;;;0.10;;
42346;SDS011;75728;51.856;6.314;2024-02-23T02:30:48;1.02;;;0.20;;
42346;SDS011;75728;51.856;6.314;2024-02-23T02:33:15;1.05;;;0.20;;
42346;SDS011;75728;51.856;6.314;2024-02-23T02:35:40;0.55;;;0.20;;
42346;SDS011;75728;51.856;6.314;2024-02-23T02:38:06;0.60;;;0.13;;
42346;SDS011;75728;51.856;6.314;2024-02-23T02:40:32;1.08;;;0.20;;
42346;SDS011;75728;51.856;6.314;2024-02-23T02:42:57;0.82;;;0.20;;
42346;SDS011;75728;51.856;6.314;2024-02-23T02:45:23;0.95;;;0.20;;
42346;SDS011;75728;51.856;6.314;2024-02-23T02:47:49;0.47;;;0.20;;
42346;SDS011;75728;51.856;6.314;2024-02-23T02:50:15;0.70;;;0.20;;
42346;SDS011;75728;51.856;6.314;2024-02-23T02:52:40;0.52;;;0.17;;
42346;SDS011;75728;51.856;6.314;2024-02-23T02:55:06;0.75;;;0.20;;
42346;SDS011;75728;51.856;6.314;2024-02-23T02:57:33;0.50;;;0.20;;
42346;SDS011;75728;51.856;6.314;2024-02-23T02:59:58;0.40;;;0.20;;
42346;SDS011;75728;51.856;6.314;2024-02-23T03:02:24;0.98;;;0.20;;
42346;SDS011;75728;51.856;6.314;2024-02-23T03:04:50;0.57;;;0.20;;
42346;SDS011;75728;51.856;6.314;2024-02-23T03:07:16;0.38;;;0.13;;
42346;SDS011;75728;51.856;6.314;2024-02-23T03:09:42;1.00;;;0.75;;
42346;SDS011;75728;51.856;6.314;2024-02-23T03:12:08;0.43;;;0.10;;
42346;SDS011;75728;51.856;6.314;2024-02-23T03:14:33;1.13;;;0.20;;
42346;SDS011;75728;51.856;6.314;2024-02-23T03:16:59;0.68;;;0.10;;
42346;SDS011;75728;51.856;6.314;2024-02-23T03:19:25;0.55;;;0.10;;
42346;SDS011;75728;51.856;6.314;2024-02-23T03:21:51;0.85;;;0.20;;
42346;SDS011;75728;51.856;6.314;2024-02-23T03:24:17;0.82;;;0.20;;
42346;SDS011;75728;51.856;6.314;2024-02-23T03:26:42;0.63;;;0.10;;
42346;SDS011;75728;51.856;6.314;2024-02-23T03:29:09;0.50;;;0.10;;
42346;SDS011;75728;51.856;6.314;2024-02-23T03:31:34;1.30;;;0.20;;
42346;SDS011;75728;51.856;6.314;2024-02-23T03:34:01;0.43;;;0.10;;
42346;SDS011;75728;51.856;6.314;2024-02-23T03:36:27;1.55;;;0.15;;
42346;SDS011;75728;51.856;6.314;2024-02-23T03:38:53;0.52;;;0.05;;
42346;SDS011;75728;51.856;6.314;2024-02-23T03:41:18;0.52;;;0.10;;
42346;SDS011;75728;51.856;6.314;2024-02-23T03:43:44;0.22;;;0.15;;
42346;SDS011;75728;51.856;6.314;2024-02-23T03:46:10;0.70;;;0.10;;
42346;SDS011;75728;51.856;6.314;2024-02-23T03:48:36;0.38;;;0.10;;
42346;SDS011;75728;51.856;6.314;2024-02-23T03:51:03;0.32;;;0.15;;
42346;SDS011;75728;51.856;6.314;2024-02-23T03:53:30;0.40;;;0.15;;
42346;SDS011;75728;51.856;6.314;2024-02-23T03:55:56;0.55;;;0.10;;
42346;SDS011;75728;51.856;6.314;2024-02-23T03:58:22;0.40;;;0.17;;
42346;SDS011;75728;51.856;6.314;2024-02-23T04:00:48;0.35;;;0.10;;
42346;SDS011;75728;51.856;6.314;2024-02-23T04:03:13;0.45;;;0.22;;
42346;SDS011;75728;51.856;6.314;2024-02-23T04:05:39;0.65;;;0.15;;
42346;SDS011;75728;51.856;6.314;2024-02-23T04:08:04;2.17;;;0.50;;
42346;SDS011;75728;51.856;6.314;2024-02-23T04:10:31;0.10;;;0.10;;
42346;SDS011;75728;51.856;6.314;2024-02-23T04:12:57;1.10;;;0.20;;
42346;SDS011;75728;51.856;6.314;2024-02-23T04:15:23;0.88;;;0.20;;
42346;SDS011;75728;51.856;6.314;2024-02-23T04:17:48;0.70;;;0.22;;
42346;SDS011;75728;51.856;6.314;2024-02-23T04:20:14;0.52;;;0.10;;
42346;SDS011;75728;51.856;6.314;2024-02-23T04:22:40;0.90;;;0.30;;
42346;SDS011;75728;51.856;6.314;2024-02-23T04:25:05;1.42;;;0.77;;
42346;SDS011;75728;51.856;6.314;2024-02-23T04:27:31;1.15;;;0.20;;
42346;SDS011;75728;51.856;6.314;2024-02-23T04:29:57;1.00;;;0.10;;
42346;SDS011;75728;51.856;6.314;2024-02-23T04:32:23;0.65;;;0.20;;
42346;SDS011;75728;51.856;6.314;2024-02-23T04:34:48;0.95;;;0.17;;
42346;SDS011;75728;51.856;6.314;2024-02-23T04:37:14;0.65;;;0.35;;
42346;SDS011;75728;51.856;6.314;2024-02-23T04:39:40;0.32;;;0.10;;
42346;SDS011;75728;51.856;6.314;2024-02-23T04:42:07;0.60;;;0.10;;
42346;SDS011;75728;51.856;6.314;2024-02-23T04:44:33;0.20;;;0.10;;
42346;SDS011;75728;51.856;6.314;2024-02-23T04:46:59;0.30;;;0.10;;
42346;SDS011;75728;51.856;6.314;2024-02-23T04:49:25;1.10;;;0.20;;
42346;SDS011;75728;51.856;6.314;2024-02-23T04:51:51;0.30;;;0.10;;
42346;SDS011;75728;51.856;6.314;2024-02-23T04:54:16;0.32;;;0.10;;
42346;SDS011;75728;51.856;6.314;2024-02-23T04:56:42;0.75;;;0.20;;
42346;SDS011;75728;51.856;6.314;2024-02-23T04:59:08;0.43;;;0.20;;
42346;SDS011;75728;51.856;6.314;2024-02-23T05:01:36;0.17;;;0.10;;
42346;SDS011;75728;51.856;6.314;2024-02-23T05:04:02;0.40;;;0.10;;
42346;SDS011;75728;51.856;6.314;2024-02-23T05:06:31;0.70;;;0.20;;
42346;SDS011;75728;51.856;6.314;2024-02-23T05:08:57;0.52;;;0.20;;
42346;SDS011;75728;51.856;6.314;2024-02-23T05:11:22;0.88;;;0.20;;
42346;SDS011;75728;51.856;6.314;2024-02-23T05:13:48;0.65;;;0.10;;
42346;SDS011;75728;51.856;6.314;2024-02-23T05:16:14;0.55;;;0.10;;
42346;SDS011;75728;51.856;6.314;2024-02-23T05:18:40;0.50;;;0.20;;
42346;SDS011;75728;51.856;6.314;2024-02-23T05:21:06;0.73;;;0.20;;
42346;SDS011;75728;51.856;6.314;2024-02-23T05:23:32;0.70;;;0.30;;
42346;SDS011;75728;51.856;6.314;2024-02-23T05:25:58;0.40;;;0.10;;
42346;SDS011;75728;51.856;6.314;2024-02-23T05:28:23;0.50;;;0.20;;
42346;SDS011;75728;51.856;6.314;2024-02-23T05:30:49;0.55;;;0.10;;
42346;SDS011;75728;51.856;6.314;2024-02-23T05:33:14;0.25;;;0.10;;
42346;SDS011;75728;51.856;6.314;2024-02-23T05:35:40;1.05;;;0.10;;
42346;SDS011;75728;51.856;6.314;2024-02-23T05:38:05;0.57;;;0.20;;
42346;SDS011;75728;51.856;6.314;2024-02-23T05:40:31;1.33;;;0.28;;
42346;SDS011;75728;51.856;6.314;2024-02-23T05:43:01;1.17;;;0.13;;
42346;SDS011;75728;51.856;6.314;2024-02-23T05:45:26;1.80;;;0.30;;
42346;SDS011;75728;51.856;6.314;2024-02-23T05:47:52;0.80;;;0.10;;
42346;SDS011;75728;51.856;6.314;2024-02-23T05:50:17;0.28;;;0.20;;
42346;SDS011;75728;51.856;6.314;2024-02-23T05:52:43;1.02;;;0.20;;
42346;SDS011;75728;51.856;6.314;2024-02-23T05:55:09;1.67;;;0.20;;
42346;SDS011;75728;51.856;6.314;2024-02-23T05:57:34;1.38;;;0.30;;
42346;SDS011;75728;51.856;6.314;2024-02-23T06:00:00;1.05;;;0.20;;
42346;SDS011;75728;51.856;6.314;2024-02-23T06:02:26;0.43;;;0.10;;
42346;SDS011;75728;51.856;6.314;2024-02-23T06:04:51;1.02;;;0.15;;
42346;SDS011;75728;51.856;6.314;2024-02-23T06:07:17;0.60;;;0.20;;
42346;SDS011;75728;51.856;6.314;2024-02-23T06:09:43;0.15;;;0.10;;
42346;SDS011;75728;51.856;6.314;2024-02-23T06:12:08;1.17;;;0.10;;
42346;SDS011;75728;51.856;6.314;2024-02-23T06:14:35;1.08;;;0.13;;
42346;SDS011;75728;51.856;6.314;2024-02-23T06:17:01;0.73;;;0.10;;
42346;SDS011;75728;51.856;6.314;2024-02-23T06:19:27;2.40;;;0.40;;
42346;SDS011;75728;51.856;6.314;2024-02-23T06:21:53;0.70;;;0.10;;
42346;SDS011;75728;51.856;6.314;2024-02-23T06:24:19;1.30;;;0.20;;
42346;SDS011;75728;51.856;6.314;2024-02-23T06:26:45;1.00;;;0.20;;
42346;SDS011;75728;51.856;6.314;2024-02-23T06:29:11;0.55;;;0.15;;
42346;SDS011;75728;51.856;6.314;2024-02-23T06:31:39;1.23;;;0.20;;
42346;SDS011;75728;51.856;6.314;2024-02-23T06:34:05;0.70;;;0.10;;
42346;SDS011;75728;51.856;6.314;2024-02-23T06:36:31;1.05;;;0.10;;
42346;SDS011;75728;51.856;6.314;2024-02-23T06:38:56;1.33;;;0.28;;
42346;SDS011;75728;51.856;6.314;2024-02-23T06:41:22;1.08;;;0.13;;
42346;SDS011;75728;51.856;6.314;2024-02-23T06:43:48;0.47;;;0.10;;
42346;SDS011;75728;51.856;6.314;2024-02-23T06:46:13;1.50;;;0.20;;
42346;SDS011;75728;51.856;6.314;2024-02-23T06:48:39;0.60;;;0.10;;
42346;SDS011;75728;51.856;6.314;2024-02-23T06:51:05;0.47;;;0.10;;
42346;SDS011;75728;51.856;6.314;2024-02-23T06:53:34;0.63;;;0.17;;
42346;SDS011;75728;51.856;6.314;2024-02-23T06:56:00;0.63;;;0.20;;
42346;SDS011;75728;51.856;6.314;2024-02-23T06:58:26;0.20;;;0.10;;
42346;SDS011;75728;51.856;6.314;2024-02-23T07:00:52;0.28;;;0.15;;
42346;SDS011;75728;51.856;6.314;2024-02-23T07:03:18;1.20;;;0.10;;
42346;SDS011;75728;51.856;6.314;2024-02-23T07:05:43;0.65;;;0.10;;
42346;SDS011;75728;51.856;6.314;2024-02-23T07:08:10;0.28;;;0.00;;
42346;SDS011;75728;51.856;6.314;2024-02-23T07:10:36;0.20;;;0.10;;
42346;SDS011;75728;51.856;6.314;2024-02-23T07:13:02;0.95;;;0.20;;
42346;SDS011;75728;51.856;6.314;2024-02-23T07:15:27;1.23;;;0.20;;
42346;SDS011;75728;51.856;6.314;2024-02-23T07:17:54;0.90;;;0.20;;
42346;SDS011;75728;51.856;6.314;2024-02-23T07:20:20;0.20;;;0.10;;
42346;SDS011;75728;51.856;6.314;2024-02-23T07:22:46;0.95;;;0.10;;
42346;SDS011;75728;51.856;6.314;2024-02-23T07:25:16;0.75;;;0.20;;
42346;SDS011;75728;51.856;6.314;2024-02-23T07:27:42;0.68;;;0.17;;
42346;SDS011;75728;51.856;6.314;2024-02-23T07:30:08;1.10;;;0.20;;
42346;SDS011;75728;51.856;6.314;2024-02-23T07:32:34;0.35;;;0.15;;
42346;SDS011;75728;51.856;6.314;2024-02-23T07:35:00;5.38;;;1.08;;
42346;SDS011;75728;51.856;6.314;2024-02-23T07:37:26;3.47;;;1.10;;
42346;SDS011;75728;51.856;6.314;2024-02-23T07:39:52;3.20;;;0.90;;
42346;SDS011;75728;51.856;6.314;2024-02-23T07:42:18;4.40;;;0.95;;
42346;SDS011;75728;51.856;6.314;2024-02-23T07:44:44;4.40;;;1.10;;
42346;SDS011;75728;51.856;6.314;2024-02-23T07:47:10;2.97;;;0.77;;
42346;SDS011;75728;51.856;6.314;2024-02-23T07:49:36;4.20;;;0.77;;
42346;SDS011;75728;51.856;6.314;2024-02-23T07:52:02;3.53;;;0.90;;
42346;SDS011;75728;51.856;6.314;2024-02-23T07:54:28;3.33;;;1.10;;
42346;SDS011;75728;51.856;6.314;2024-02-23T07:56:54;2.55;;;1.10;;
42346;SDS011;75728;51.856;6.314;2024-02-23T07:59:19;4.38;;;1.65;;
42346;SDS011;75728;51.856;6.314;2024-02-23T08:01:45;4.90;;;1.10;;
42346;SDS011;75728;51.856;6.314;2024-02-23T08:04:11;6.43;;;1.13;;
42346;SDS011;75728;51.856;6.314;2024-02-23T08:06:38;4.38;;;1.35;;
42346;SDS011;75728;51.856;6.314;2024-02-23T08:09:04;3.22;;;1.17;;
42346;SDS011;75728;51.856;6.314;2024-02-23T08:11:30;3.50;;;0.73;;
42346;SDS011;75728;51.856;6.314;2024-02-23T08:13:55;4.47;;;0.90;;
42346;SDS011;75728;51.856;6.314;2024-02-23T08:16:21;2.90;;;0.63;;
42346;SDS011;75728;51.856;6.314;2024-02-23T08:18:47;4.40;;;0.88;;
42346;SDS011;75728;51.856;6.314;2024-02-23T08:21:12;3.67;;;0.88;;
42346;SDS011;75728;51.856;6.314;2024-02-23T08:23:38;2.60;;;0.68;;
42346;SDS011;75728;51.856;6.314;2024-02-23T08:26:03;3.75;;;0.60;;
42346;SDS011;75728;51.856;6.314;2024-02-23T08:28:29;4.60;;;0.98;;
42346;SDS011;75728;51.856;6.314;2024-02-23T08:30:55;3.22;;;0.90;;
42346;SDS011;75728;51.856;6.314;2024-02-23T08:33:20;2.92;;;0.50;;
42346;SDS011;75728;51.856;6.314;2024-02-23T08:35:46;3.17;;;0.70;;
42346;SDS011;75728;51.856;6.314;2024-02-23T08:38:13;3.45;;;0.68;;
42346;SDS011;75728;51.856;6.314;2024-02-23T08:40:39;5.47;;;1.17;;
42346;SDS011;75728;51.856;6.314;2024-02-23T08:43:05;4.50;;;0.80;;
42346;SDS011;75728;51.856;6.314;2024-02-23T08:45:30;3.58;;;0.60;;
42346;SDS011;75728;51.856;6.314;2024-02-23T08:47:56;3.83;;;1.00;;
42346;SDS011;75728;51.856;6.314;2024-02-23T08:50:22;4.95;;;0.95;;
42346;SDS011;75728;51.856;6.314;2024-02-23T08:52:47;2.85;;;0.73;;
42346;SDS011;75728;51.856;6.314;2024-02-23T08:55:13;2.80;;;0.70;;
42346;SDS011;75728;51.856;6.314;2024-02-23T08:57:39;4.10;;;0.90;;
42346;SDS011;75728;51.856;6.314;2024-02-23T09:00:05;5.47;;;1.20;;
42346;SDS011;75728;51.856;6.314;2024-02-23T09:02:31;3.53;;;0.73;;
42346;SDS011;75728;51.856;6.314;2024-02-23T09:05:03;2.60;;;0.50;;
42346;SDS011;75728;51.856;6.314;2024-02-23T09:07:29;3.55;;;0.60;;
42346;SDS011;75728;51.856;6.314;2024-02-23T09:09:55;6.55;;;0.70;;
42346;SDS011;75728;51.856;6.314;2024-02-23T09:12:22;6.50;;;1.27;;
42346;SDS011;75728;51.856;6.314;2024-02-23T09:14:47;5.05;;;0.88;;
42346;SDS011;75728;51.856;6.314;2024-02-23T09:17:13;3.90;;;1.00;;
42346;SDS011;75728;51.856;6.314;2024-02-23T09:19:39;4.53;;;0.95;;
42346;SDS011;75728;51.856;6.314;2024-02-23T09:22:04;3.25;;;0.98;;
42346;SDS011;75728;51.856;6.314;2024-02-23T09:24:30;2.28;;;0.60;;
42346;SDS011;75728;51.856;6.314;2024-02-23T09:26:56;4.55;;;0.70;;
42346;SDS011;75728;51.856;6.314;2024-02-23T09:29:21;5.82;;;0.98;;
42346;SDS011;75728;51.856;6.314;2024-02-23T09:31:47;2.85;;;0.80;;
42346;SDS011;75728;51.856;6.314;2024-02-23T09:34:13;3.42;;;0.60;;
42346;SDS011;75728;51.856;6.314;2024-02-23T09:36:38;2.05;;;0.73;;
42346;SDS011;75728;51.856;6.314;2024-02-23T09:39:04;5.03;;;0.70;;
42346;SDS011;75728;51.856;6.314;2024-02-23T09:41:30;3.67;;;1.02;;
42346;SDS011;75728;51.856;6.314;2024-02-23T09:43:59;3.00;;;0.70;;
42346;SDS011;75728;51.856;6.314;2024-02-23T09:46:26;4.53;;;0.70;;
42346;SDS011;75728;51.856;6.314;2024-02-23T09:48:52;2.42;;;0.50;;
42346;SDS011;75728;51.856;6.314;2024-02-23T09:51:19;15.23;;;1.98;;
42346;SDS011;75728;51.856;6.314;2024-02-23T09:53:48;3.97;;;0.80;;
42346;SDS011;75728;51.856;6.314;2024-02-23T09:56:16;3.53;;;1.02;;
42346;SDS011;75728;51.856;6.314;2024-02-23T09:58:44;8.23;;;4.32;;
42346;SDS011;75728;51.856;6.314;2024-02-23T10:01:12;8.13;;;2.88;;
42346;SDS011;75728;51.856;6.314;2024-02-23T10:03:43;3.22;;;0.70;;
42346;SDS011;75728;51.856;6.314;2024-02-23T10:06:10;4.05;;;0.70;;
42346;SDS011;75728;51.856;6.314;2024-02-23T10:08:35;2.95;;;0.75;;
42346;SDS011;75728;51.856;6.314;2024-02-23T10:11:01;4.68;;;0.82;;
42346;SDS011;75728;51.856;6.314;2024-02-23T10:13:27;5.13;;;1.30;;
42346;SDS011;75728;51.856;6.314;2024-02-23T10:15:54;4.30;;;0.88;;
42346;SDS011;75728;51.856;6.314;2024-02-23T10:18:20;4.07;;;0.80;;
42346;SDS011;75728;51.856;6.314;2024-02-23T10:20:46;2.45;;;1.13;;
42346;SDS011;75728;51.856;6.314;2024-02-23T10:23:12;4.93;;;0.95;;
42346;SDS011;75728;51.856;6.314;2024-02-23T10:25:38;5.63;;;0.70;;
42346;SDS011;75728;51.856;6.314;2024-02-23T10:28:05;3.20;;;0.80;;
42346;SDS011;75728;51.856;6.314;2024-02-23T10:30:31;3.80;;;0.77;;
42346;SDS011;75728;51.856;6.314;2024-02-23T10:32:58;3.50;;;0.73;;
42346;SDS011;75728;51.856;6.314;2024-02-23T10:35:24;4.85;;;0.85;;
42346;SDS011;75728;51.856;6.314;2024-02-23T10:37:52;4.40;;;0.90;;
42346;SDS011;75728;51.856;6.314;2024-02-23T10:40:19;4.38;;;0.70;;
42346;SDS011;75728;51.856;6.314;2024-02-23T10:42:47;4.85;;;0.93;;
42346;SDS011;75728;51.856;6.314;2024-02-23T10:45:16;10.70;;;7.90;;
42346;SDS011;75728;51.856;6.314;2024-02-23T10:47:43;2.30;;;0.50;;
42346;SDS011;75728;51.856;6.314;2024-02-23T10:50:09;2.72;;;0.70;;
42346;SDS011;75728;51.856;6.314;2024-02-23T10:52:39;2.88;;;0.68;;
42346;SDS011;75728;51.856;6.314;2024-02-23T10:55:08;3.45;;;0.63;;
42346;SDS011;75728;51.856;6.314;2024-02-23T10:57:37;5.30;;;0.75;;
42346;SDS011;75728;51.856;6.314;2024-02-23T11:00:04;1.80;;;0.60;;
42346;SDS011;75728;51.856;6.314;2024-02-23T11:02:38;2.72;;;0.80;;
42346;SDS011;75728;51.856;6.314;2024-02-23T11:05:08;3.40;;;0.60;;
42346;SDS011;75728;51.856;6.314;2024-02-23T11:07:40;2.17;;;0.52;;
42346;SDS011;75728;51.856;6.314;2024-02-23T11:10:05;1.88;;;0.50;;
42346;SDS011;75728;51.856;6.314;2024-02-23T11:12:33;3.33;;;0.82;;
42346;SDS011;75728;51.856;6.314;2024-02-23T11:14:59;3.03;;;0.80;;
42346;SDS011;75728;51.856;6.314;2024-02-23T11:17:26;4.07;;;1.73;;
42346;SDS011;75728;51.856;6.314;2024-02-23T11:19:54;5.03;;;1.05;;
42346;SDS011;75728;51.856;6.314;2024-02-23T11:22:25;4.22;;;0.80;;
42346;SDS011;75728;51.856;6.314;2024-02-23T11:24:51;2.70;;;0.70;;
42346;SDS011;75728;51.856;6.314;2024-02-23T11:27:17;3.92;;;0.70;;
42346;SDS011;75728;51.856;6.314;2024-02-23T11:29:44;6.05;;;0.90;;
42346;SDS011;75728;51.856;6.314;2024-02-23T11:32:12;3.85;;;0.82;;
42346;SDS011;75728;51.856;6.314;2024-02-23T11:34:42;4.97;;;1.00;;
42346;SDS011;75728;51.856;6.314;2024-02-23T11:37:21;3.13;;;0.60;;
42346;SDS011;75728;51.856;6.314;2024-02-23T11:39:46;4.82;;;1.00;;
42346;SDS011;75728;51.856;6.314;2024-02-23T11:42:13;3.38;;;0.85;;
42346;SDS011;75728;51.856;6.314;2024-02-23T11:44:39;4.93;;;0.80;;
42346;SDS011;75728;51.856;6.314;2024-02-23T11:47:06;2.97;;;0.60;;
42346;SDS011;75728;51.856;6.314;2024-02-23T11:49:32;3.15;;;1.10;;
42346;SDS011;75728;51.856;6.314;2024-02-23T11:51:58;2.22;;;0.77;;
42346;SDS011;75728;51.856;6.314;2024-02-23T11:54:24;4.55;;;1.23;;
42346;SDS011;75728;51.856;6.314;2024-02-23T11:56:50;8.05;;;2.25;;
42346;SDS011;75728;51.856;6.314;2024-02-23T11:59:17;2.47;;;0.70;;
42346;SDS011;75728;51.856;6.314;2024-02-23T12:01:45;3.08;;;0.95;;
42346;SDS011;75728;51.856;6.314;2024-02-23T12:04:12;4.60;;;1.10;;
42346;SDS011;75728;51.856;6.314;2024-02-23T12:06:37;4.93;;;2.40;;
42346;SDS011;75728;51.856;6.314;2024-02-23T12:09:03;4.80;;;0.80;;
42346;SDS011;75728;51.856;6.314;2024-02-23T12:11:29;3.38;;;0.65;;
42346;SDS011;75728;51.856;6.314;2024-02-23T12:13:56;3.88;;;0.70;;
42346;SDS011;75728;51.856;6.314;2024-02-23T12:16:22;2.08;;;0.57;;
42346;SDS011;75728;51.856;6.314;2024-02-23T12:18:54;2.70;;;0.55;;
42346;SDS011;75728;51.856;6.314;2024-02-23T12:21:20;2.30;;;0.70;;
42346;SDS011;75728;51.856;6.314;2024-02-23T12:23:48;2.15;;;0.50;;
42346;SDS011;75728;51.856;6.314;2024-02-23T12:26:18;4.05;;;1.17;;
42346;SDS011;75728;51.856;6.314;2024-02-23T12:28:44;5.57;;;0.98;;
42346;SDS011;75728;51.856;6.314;2024-02-23T12:31:13;5.15;;;1.30;;
42346;SDS011;75728;51.856;6.314;2024-02-23T12:33:39;5.10;;;0.93;;
42346;SDS011;75728;51.856;6.314;2024-02-23T12:36:05;3.92;;;1.10;;
42346;SDS011;75728;51.856;6.314;2024-02-23T12:38:32;6.00;;;2.20;;
42346;SDS011;75728;51.856;6.314;2024-02-23T12:40:59;4.38;;;1.60;;
42346;SDS011;75728;51.856;6.314;2024-02-23T12:43:25;6.65;;;2.35;;
42346;SDS011;75728;51.856;6.314;2024-02-23T12:45:54;5.05;;;1.50;;
42346;SDS011;75728;51.856;6.314;2024-02-23T12:48:20;3.90;;;0.80;;
42346;SDS011;75728;51.856;6.314;2024-02-23T12:50:46;5.30;;;1.00;;
42346;SDS011;75728;51.856;6.314;2024-02-23T12:53:32;2.75;;;1.00;;
42346;SDS011;75728;51.856;6.314;2024-02-23T12:56:03;4.72;;;1.65;;
42346;SDS011;75728;51.856;6.314;2024-02-23T12:58:30;3.35;;;1.23;;
42346;SDS011;75728;51.856;6.314;2024-02-23T13:00:56;4.07;;;1.13;;
42346;SDS011;75728;51.856;6.314;2024-02-23T13:03:23;3.55;;;1.73;;
42346;SDS011;75728;51.856;6.314;2024-02-23T13:05:50;3.25;;;1.40;;
42346;SDS011;75728;51.856;6.314;2024-02-23T13:08:16;1.98;;;0.50;;
42346;SDS011;75728;51.856;6.314;2024-02-23T13:10:42;2.88;;;0.93;;
42346;SDS011;75728;51.856;6.314;2024-02-23T13:13:08;3.47;;;1.30;;
42346;SDS011;75728;51.856;6.314;2024-02-23T13:15:34;3.88;;;1.60;;
42346;SDS011;75728;51.856;6.314;2024-02-23T13:18:01;5.22;;;1.98;;
42346;SDS011;75728;51.856;6.314;2024-02-23T13:20:27;4.30;;;1.13;;
42346;SDS011;75728;51.856;6.314;2024-02-23T13:22:53;5.38;;;2.15;;
42346;SDS011;75728;51.856;6.314;2024-02-23T13:25:18;3.70;;;0.80;;
42346;SDS011;75728;51.856;6.314;2024-02-23T13:27:44;2.53;;;0.70;;
42346;SDS011;75728;51.856;6.314;2024-02-23T13:30:10;2.80;;;0.80;;
42346;SDS011;75728;51.856;6.314;2024-02-23T13:32:37;3.75;;;0.80;;
42346;SDS011;75728;51.856;6.314;2024-02-23T13:35:02;2.80;;;0.82;;
42346;SDS011;75728;51.856;6.314;2024-02-23T13:37:31;2.35;;;0.90;;
42346;SDS011;75728;51.856;6.314;2024-02-23T13:39:57;2.88;;;0.90;;
42346;SDS011;75728;51.856;6.314;2024-02-23T13:42:22;3.20;;;0.57;;
42346;SDS011;75728;51.856;6.314;2024-02-23T13:44:48;1.80;;;0.65;;
42346;SDS011;75728;51.856;6.314;2024-02-23T13:47:14;1.92;;;0.75;;
42346;SDS011;75728;51.856;6.314;2024-02-23T13:49:39;3.15;;;0.60;;
42346;SDS011;75728;51.856;6.314;2024-02-23T13:52:05;1.85;;;0.70;;
42346;SDS011;75728;51.856;6.314;2024-02-23T13:54:31;3.33;;;0.93;;
42346;SDS011;75728;51.856;6.314;2024-02-23T13:56:57;4.88;;;1.27;;
42346;SDS011;75728;51.856;6.314;2024-02-23T13:59:22;3.17;;;0.60;;
42346;SDS011;75728;51.856;6.314;2024-02-23T14:01:48;2.92;;;0.80;;
42346;SDS011;75728;51.856;6.314;2024-02-23T14:04:14;2.47;;;0.50;;
42346;SDS011;75728;51.856;6.314;2024-02-23T14:06:39;2.35;;;0.95;;
42346;SDS011;75728;51.856;6.314;2024-02-23T14:09:05;6.50;;;0.90;;
42346;SDS011;75728;51.856;6.314;2024-02-23T14:11:31;2.58;;;0.75;;
42346;SDS011;75728;51.856;6.314;2024-02-23T14:13:57;2.42;;;0.60;;
42346;SDS011;75728;51.856;6.314;2024-02-23T14:16:23;3.53;;;0.50;;
42346;SDS011;75728;51.856;6.314;2024-02-23T14:18:48;3.67;;;0.60;;
42346;SDS011;75728;51.856;6.314;2024-02-23T14:21:15;2.97;;;0.70;;
42346;SDS011;75728;51.856;6.314;2024-02-23T14:23:43;2.97;;;0.93;;
42346;SDS011;75728;51.856;6.314;2024-02-23T14:26:08;3.28;;;0.77;;
42346;SDS011;75728;51.856;6.314;2024-02-23T14:28:35;3.60;;;0.60;;
42346;SDS011;75728;51.856;6.314;2024-02-23T14:31:00;3.03;;;0.70;;
42346;SDS011;75728;51.856;6.314;2024-02-23T14:33:26;3.17;;;0.63;;
42346;SDS011;75728;51.856;6.314;2024-02-23T14:35:51;2.00;;;0.57;;
42346;SDS011;75728;51.856;6.314;2024-02-23T14:38:17;3.28;;;0.55;;
42346;SDS011;75728;51.856;6.314;2024-02-23T14:40:43;2.47;;;0.55;;
42346;SDS011;75728;51.856;6.314;2024-02-23T14:43:08;2.35;;;0.52;;